Time;durP1;ratioP1;P1;durP2;ratioP2;P2;SDS_P1;SDS_P2;PMS_P1;PMS_P2;Temp;Humidity;BMP_temperature;BMP_pressure;BME280_temperature;BME280_humidity;BME280_pressure;Samples;Min_cycle;Max_cycle;Signal;HPM_P1;HPM_P2
2022/06/22 00:01:20;;;;;;;;;;;25.20;80.90;;;;;;5096481;28;19941;-96
2022/06/22 00:03:48;;;;;;;;;;;25.20;80.80;;;;;;5096403;28;19935;-96
2022/06/22 00:06:32;;;;;;;;;;;25.10;80.80;;;;;;5096573;28;19946;-96
2022/06/22 00:08:58;;;;;;;;;;;25.10;80.40;;;;;;5095926;28;19964;-96
2022/06/22 00:11:26;;;;;;;;;;;25.00;80.10;;;;;;5096533;28;20049;-95
2022/06/22 00:13:54;;;;;;;;;;;25.10;79.80;;;;;;5094617;28;19952;-96
2022/06/22 00:16:28;;;;;;;;;;;25.10;79.80;;;;;;5096100;28;19944;-96
2022/06/22 00:18:54;;;;;;;;;;;25.00;79.60;;;;;;5095792;28;19986;-96
2022/06/22 00:21:20;;;;;;;;;;;25.00;79.60;;;;;;5096225;28;19940;-96
2022/06/22 00:23:47;;;;;;;;;;;25.00;79.20;;;;;;5095928;28;19940;-96
2022/06/22 00:26:22;;;;;;;;;;;25.00;78.60;;;;;;5095839;28;20039;-96
2022/06/22 00:28:52;;;;;;;;;;;25.00;78.10;;;;;;5095474;28;20061;-95
2022/06/22 00:31:21;;;;;;;;;;;24.90;77.90;;;;;;5095746;28;19937;-96
2022/06/22 00:34:01;;;;;;;;;;;24.90;77.70;;;;;;5095475;28;20386;-96
2022/06/22 00:36:32;;;;;;;;;;;24.90;77.40;;;;;;5095943;28;19939;-96
2022/06/22 00:39:07;;;;;;;;;;;24.90;77.30;;;;;;5095679;28;20038;-96
2022/06/22 00:41:33;;;;;;;;;;;24.80;77.20;;;;;;5095866;28;19936;-96
2022/06/22 00:44:04;;;;;;;;;;;24.80;77.20;;;;;;5095233;28;19944;-96
2022/06/22 00:46:30;;;;;;;;;;;24.70;77.30;;;;;;5095414;28;19963;-96
2022/06/22 00:48:56;;;;;;;;;;;24.70;77.20;;;;;;5095390;28;19963;-96
2022/06/22 00:51:27;;;;;;;;;;;24.80;77.20;;;;;;5095129;28;20343;-96
2022/06/22 00:53:55;;;;;;;;;;;24.80;77.40;;;;;;5095328;28;19940;-95
2022/06/22 00:56:26;;;;;;;;;;;24.80;77.10;;;;;;5095023;28;20033;-95
2022/06/22 00:58:55;;;;;;;;;;;24.80;77.10;;;;;;5093517;28;19988;-96
2022/06/22 01:01:23;;;;;;;;;;;24.80;77.10;;;;;;5095260;28;20108;-96
2022/06/22 01:03:53;;;;;;;;;;;24.80;77.20;;;;;;5095271;28;20019;-95
2022/06/22 01:06:27;;;;;;;;;;;24.70;77.40;;;;;;5095145;28;19940;-96
2022/06/22 01:09:22;;;;;;;;;;;24.70;77.60;;;;;;5094666;28;19953;-96
2022/06/22 01:12:17;;;;;;;;;;;24.60;77.80;;;;;;5081799;28;19950;-96
2022/06/22 01:14:49;;;;;;;;;;;24.50;78.00;;;;;;5093508;28;20406;-96
2022/06/22 01:17:20;;;;;;;;;;;24.50;77.90;;;;;;5095027;28;20001;-95
2022/06/22 01:19:51;;;;;;;;;;;24.40;77.70;;;;;;5094926;28;19937;-96
2022/06/22 01:22:36;;;;;;;;;;;24.40;77.40;;;;;;5094884;28;19971;-95
2022/06/22 01:25:17;;;;;;;;;;;24.40;76.90;;;;;;5094732;28;19970;-96
2022/06/22 01:27:44;;;;;;;;;;;24.30;76.80;;;;;;5095032;28;20099;-96
2022/06/22 01:30:37;;;;;;;;;;;24.30;76.30;;;;;;5093954;28;19963;-95
2022/06/22 01:33:29;;;;;;;;;;;24.30;76.20;;;;;;5092442;28;19993;-96
2022/06/22 01:35:58;;;;;;;;;;;24.30;75.80;;;;;;5091206;28;19946;-96
2022/06/22 01:38:26;;;;;;;;;;;24.30;75.60;;;;;;5093098;28;19953;-96
2022/06/22 01:41:17;;;;;;;;;;;24.20;74.90;;;;;;5094553;28;19939;-95
2022/06/22 01:43:52;;;;;;;;;;;24.20;74.50;;;;;;5070557;28;19948;-96
2022/06/22 01:46:22;;;;;;;;;;;24.20;73.80;;;;;;5094464;28;19935;-96
2022/06/22 01:48:50;;;;;;;;;;;24.20;73.30;;;;;;5094146;28;19959;-96
2022/06/22 01:51:19;;;;;;;;;;;24.20;72.90;;;;;;5094702;28;20038;-96
2022/06/22 01:53:48;;;;;;;;;;;24.20;72.70;;;;;;5094045;28;19936;-96
2022/06/22 01:56:22;;;;;;;;;;;24.10;72.20;;;;;;5094000;28;19948;-96
2022/06/22 01:58:55;;;;;;;;;;;24.10;72.10;;;;;;5077427;22;19985;-95
2022/06/22 02:01:41;;;;;;;;;;;24.10;72.10;;;;;;5053758;28;19939;-96
2022/06/22 02:04:07;;;;;;;;;;;24.10;72.00;;;;;;5054327;28;20369;-96
2022/06/22 02:09:36;;;;;;;;;;;24.00;71.40;;;;;;5053698;28;20056;-96
2022/06/22 02:12:20;;;;;;;;;;;24.00;72.20;;;;;;5053981;28;20029;-96
2022/06/22 02:14:52;;;;;;;;;;;23.90;71.80;;;;;;5053627;28;19940;-96
2022/06/22 02:17:21;;;;;;;;;;;23.80;71.40;;;;;;5053903;28;19989;-96
2022/06/22 02:20:05;;;;;;;;;;;23.80;71.70;;;;;;5053744;28;19943;-96
2022/06/22 02:22:31;;;;;;;;;;;23.80;71.70;;;;;;5054198;28;19941;-96
2022/06/22 02:24:56;;;;;;;;;;;23.70;71.90;;;;;;5053822;28;19947;-96
2022/06/22 02:27:23;;;;;;;;;;;23.70;72.00;;;;;;5054129;28;19949;-96
2022/06/22 02:29:55;;;;;;;;;;;23.70;72.20;;;;;;5053457;28;20105;-96
2022/06/22 02:32:23;;;;;;;;;;;23.70;72.10;;;;;;5054048;28;19942;-95
2022/06/22 02:34:52;;;;;;;;;;;23.60;72.20;;;;;;5053485;28;19935;-96
2022/06/22 02:37:19;;;;;;;;;;;23.50;72.20;;;;;;5053735;28;20028;-95
2022/06/22 02:39:46;;;;;;;;;;;23.50;72.50;;;;;;5053443;28;19961;-96
2022/06/22 02:44:57;;;;;;;;;;;23.30;72.80;;;;;;5057615;28;19953;-95
2022/06/22 02:47:42;;;;;;;;;;;23.30;73.20;;;;;;5057550;28;19940;-95
2022/06/22 02:50:10;;;;;;;;;;;23.30;72.70;;;;;;5057166;28;20408;-96
2022/06/22 02:52:50;;;;;;;;;;;23.20;72.40;;;;;;5057716;28;20051;-96
2022/06/22 02:55:17;;;;;;;;;;;23.20;72.60;;;;;;5056927;28;20029;-96
2022/06/22 02:57:42;;;;;;;;;;;23.10;72.70;;;;;;5057389;28;19982;-96
2022/06/22 03:00:08;;;;;;;;;;;23.20;72.50;;;;;;5057562;28;20095;-96
2022/06/22 03:02:34;;;;;;;;;;;23.10;72.60;;;;;;5056936;28;20066;-95
2022/06/22 03:05:00;;;;;;;;;;;23.10;72.50;;;;;;5057450;28;19966;-96
2022/06/22 03:07:28;;;;;;;;;;;23.10;72.80;;;;;;5056855;28;19942;-96
2022/06/22 03:09:53;;;;;;;;;;;23.10;73.00;;;;;;5057012;28;20349;-95
2022/06/22 03:12:19;;;;;;;;;;;23.00;73.30;;;;;;5057027;28;19937;-96
2022/06/22 03:14:49;;;;;;;;;;;23.00;73.40;;;;;;5057289;28;19940;-95
2022/06/22 03:17:16;;;;;;;;;;;23.00;73.80;;;;;;5056672;28;20389;-96
2022/06/22 03:19:45;;;;;;;;;;;23.00;74.10;;;;;;5056891;28;19952;-95
2022/06/22 03:22:16;;;;;;;;;;;22.90;74.30;;;;;;5038656;28;19981;-96
2022/06/22 03:24:48;;;;;;;;;;;22.90;74.40;;;;;;5057073;28;19949;-96
2022/06/22 03:27:16;;;;;;;;;;;22.90;74.60;;;;;;5038608;28;19946;-96
2022/06/22 03:29:47;;;;;;;;;;;22.80;74.60;;;;;;5038514;28;20411;-96
2022/06/22 03:32:24;;;;;;;;;;;22.80;74.80;;;;;;5056735;28;19986;-96
2022/06/22 03:35:02;;;;;;;;;;;22.80;75.10;;;;;;5056748;28;19966;-96
2022/06/22 03:37:47;;;;;;;;;;;22.70;75.30;;;;;;5038538;28;19941;-96
2022/06/22 03:40:24;;;;;;;;;;;22.70;75.60;;;;;;5055380;28;20034;-96
2022/06/22 03:42:55;;;;;;;;;;;22.60;75.90;;;;;;5056606;28;20003;-96
2022/06/22 03:45:29;;;;;;;;;;;22.70;76.00;;;;;;5056696;28;19996;-96
2022/06/22 03:47:54;;;;;;;;;;;22.70;75.90;;;;;;5056377;28;19974;-96
2022/06/22 03:50:20;;;;;;;;;;;22.70;76.00;;;;;;5056171;28;20370;-96
2022/06/22 03:52:51;;;;;;;;;;;22.70;76.30;;;;;;5055980;28;19950;-96
2022/06/22 03:55:18;;;;;;;;;;;22.80;76.30;;;;;;5055865;28;19988;-96
2022/06/22 03:57:45;;;;;;;;;;;22.80;76.50;;;;;;5055976;28;19974;-96
2022/06/22 04:00:12;;;;;;;;;;;22.80;76.50;;;;;;5056211;28;19944;-96
2022/06/22 04:02:38;;;;;;;;;;;22.80;77.30;;;;;;5055874;28;19951;-96
2022/06/22 04:05:04;;;;;;;;;;;22.70;77.60;;;;;;5056017;28;19956;-96
2022/06/22 04:07:33;;;;;;;;;;;22.60;78.90;;;;;;5055750;28;19935;-96
2022/06/22 04:09:58;;;;;;;;;;;22.50;79.30;;;;;;5055972;28;20071;-96
2022/06/22 04:12:24;;;;;;;;;;;22.50;79.50;;;;;;5055644;28;19972;-96
2022/06/22 04:14:56;;;;;;;;;;;22.40;80.10;;;;;;5056190;28;19959;-96
2022/06/22 04:17:33;;;;;;;;;;;22.40;80.60;;;;;;5055625;28;20015;-96
2022/06/22 04:20:25;;;;;;;;;;;22.30;80.70;;;;;;5055828;28;19953;-96
2022/06/22 04:22:53;;;;;;;;;;;22.30;81.30;;;;;;5052450;28;19948;-96
2022/06/22 04:25:33;;;;;;;;;;;22.40;81.00;;;;;;5055943;28;19967;-96
2022/06/22 04:28:02;;;;;;;;;;;22.50;80.20;;;;;;5055752;28;20039;-96
2022/06/22 04:30:29;;;;;;;;;;;22.50;80.20;;;;;;5055594;28;20415;-96
2022/06/22 04:33:07;;;;;;;;;;;22.60;80.60;;;;;;5037434;28;19943;-96
2022/06/22 04:35:43;;;;;;;;;;;22.60;80.90;;;;;;5055803;28;19943;-96
2022/06/22 04:38:12;;;;;;;;;;;22.60;80.80;;;;;;5055657;28;19953;-96
2022/06/22 04:40:56;;;;;;;;;;;22.50;80.40;;;;;;5055458;28;19951;-96
2022/06/22 04:43:22;;;;;;;;;;;22.50;81.20;;;;;;5055376;28;19948;-95
2022/06/22 04:45:48;;;;;;;;;;;22.50;81.10;;;;;;5055290;28;19951;-96
2022/06/22 04:48:13;;;;;;;;;;;22.60;80.80;;;;;;5055183;28;19945;-96
2022/06/22 04:50:41;;;;;;;;;;;22.70;80.50;;;;;;5054912;28;19947;-96
2022/06/22 04:53:13;;;;;;;;;;;22.80;80.20;;;;;;5054680;28;19936;-96
2022/06/22 04:55:41;;;;;;;;;;;22.90;80.30;;;;;;5054665;28;19943;-96
2022/06/22 04:58:15;;;;;;;;;;;23.00;80.20;;;;;;5054910;28;19958;-96
2022/06/22 05:00:40;;;;;;;;;;;23.00;80.00;;;;;;5055042;28;19937;-96
2022/06/22 05:03:12;;;;;;;;;;;23.10;80.00;;;;;;5054041;28;19939;-96
2022/06/22 05:05:38;;;;;;;;;;;23.20;79.60;;;;;;5054857;28;19948;-96
2022/06/22 05:08:09;;;;;;;;;;;23.30;79.40;;;;;;5054499;28;19946;-96
2022/06/22 05:10:45;;;;;;;;;;;23.20;79.10;;;;;;5054535;28;19942;-96
2022/06/22 05:13:13;;;;;;;;;;;23.30;79.30;;;;;;5054496;28;19944;-96
2022/06/22 05:15:40;;;;;;;;;;;23.40;79.40;;;;;;5054486;28;19937;-96
2022/06/22 05:18:14;;;;;;;;;;;23.40;78.40;;;;;;5054442;28;19936;-96
2022/06/22 05:20:46;;;;;;;;;;;23.60;77.40;;;;;;5054909;28;19959;-96
2022/06/22 05:23:12;;;;;;;;;;;23.70;76.60;;;;;;5054132;28;19981;-96
2022/06/22 05:25:38;;;;;;;;;;;23.90;76.00;;;;;;5054014;28;19989;-96
2022/06/22 05:28:06;;;;;;;;;;;24.00;75.30;;;;;;5054080;28;19940;-96
2022/06/22 05:30:43;;;;;;;;;;;24.10;74.90;;;;;;5054499;28;19959;-96
2022/06/22 05:33:12;;;;;;;;;;;24.30;76.00;;;;;;5054184;28;19941;-96
2022/06/22 05:35:40;;;;;;;;;;;24.30;75.50;;;;;;5054228;28;19948;-96
2022/06/22 05:38:09;;;;;;;;;;;24.20;74.80;;;;;;5054280;28;19942;-96
2022/06/22 05:40:36;;;;;;;;;;;24.20;74.80;;;;;;5054258;28;19938;-96
2022/06/22 05:43:02;;;;;;;;;;;24.00;75.40;;;;;;5054045;28;20295;-95
2022/06/22 05:45:29;;;;;;;;;;;23.80;75.70;;;;;;5054494;28;20389;-96
2022/06/22 05:47:56;;;;;;;;;;;23.80;76.40;;;;;;5053798;28;20396;-95
2022/06/22 05:50:29;;;;;;;;;;;23.70;76.40;;;;;;5053764;28;20053;-95
2022/06/22 05:53:01;;;;;;;;;;;23.60;77.30;;;;;;5053643;28;19945;-96
2022/06/22 05:55:39;;;;;;;;;;;23.60;76.10;;;;;;5053228;28;20406;-94
2022/06/22 05:58:10;;;;;;;;;;;23.70;76.50;;;;;;5053427;28;20026;-94
2022/06/22 06:00:44;;;;;;;;;;;23.70;75.40;;;;;;5053401;28;20059;-95
2022/06/22 06:03:21;;;;;;;;;;;23.70;75.90;;;;;;5053500;28;20055;-96
2022/06/22 06:05:51;;;;;;;;;;;23.70;75.60;;;;;;5053186;28;20454;-94
2022/06/22 06:08:24;;;;;;;;;;;23.70;75.70;;;;;;5053495;28;20031;-95
2022/06/22 06:10:50;;;;;;;;;;;23.90;74.90;;;;;;5053931;28;19955;-95
2022/06/22 06:13:21;;;;;;;;;;;24.00;74.10;;;;;;5053501;28;19941;-95
2022/06/22 06:15:50;;;;;;;;;;;24.00;74.80;;;;;;5055952;28;19960;-95
2022/06/22 06:18:20;;;;;;;;;;;24.20;75.30;;;;;;5057245;28;19949;-94
2022/06/22 06:20:48;;;;;;;;;;;24.20;73.70;;;;;;5057756;28;19938;-94
2022/06/22 06:23:21;;;;;;;;;;;24.30;74.30;;;;;;5057519;28;19949;-94
2022/06/22 06:28:45;;;;;;;;;;;24.60;72.90;;;;;;5057720;28;19990;-94
2022/06/22 06:31:24;;;;;;;;;;;24.70;72.40;;;;;;5056987;28;20058;-94
2022/06/22 06:33:50;;;;;;;;;;;24.80;72.10;;;;;;5057426;28;19939;-94
2022/06/22 06:36:21;;;;;;;;;;;24.70;72.20;;;;;;5057443;28;19947;-95
2022/06/22 06:39:00;;;;;;;;;;;24.70;72.80;;;;;;5057214;28;20001;-95
2022/06/22 06:41:40;;;;;;;;;;;24.80;73.00;;;;;;5068487;28;19978;-95
2022/06/22 06:44:20;;;;;;;;;;;24.70;71.70;;;;;;5077036;28;19993;-95
2022/06/22 06:46:46;;;;;;;;;;;24.50;71.90;;;;;;5077224;28;20393;-93
2022/06/22 06:49:15;;;;;;;;;;;24.40;74.10;;;;;;5076966;28;19967;-95
2022/06/22 06:51:46;;;;;;;;;;;24.40;73.40;;;;;;5059086;28;20393;-95
2022/06/22 06:54:28;;;;;;;;;;;24.50;73.20;;;;;;5076845;28;19965;-94
2022/06/22 06:56:58;;;;;;;;;;;24.70;73.00;;;;;;5059026;28;20032;-94
2022/06/22 06:59:26;;;;;;;;;;;24.90;73.50;;;;;;5075967;28;20080;-94
2022/06/22 07:01:52;;;;;;;;;;;25.10;72.50;;;;;;5076310;28;19980;-94
2022/06/22 07:04:21;;;;;;;;;;;25.10;71.50;;;;;;5076760;28;19945;-95
2022/06/22 07:06:46;;;;;;;;;;;25.20;70.40;;;;;;5076682;28;20049;-93
2022/06/22 07:09:15;;;;;;;;;;;25.20;71.20;;;;;;5076630;28;20411;-94
2022/06/22 07:11:44;;;;;;;;;;;25.30;70.30;;;;;;5076604;28;20437;-94
2022/06/22 07:14:25;;;;;;;;;;;25.30;69.10;;;;;;5076329;28;19944;-94
2022/06/22 07:16:57;;;;;;;;;;;25.30;69.60;;;;;;5057929;28;20364;-95
2022/06/22 07:19:41;;;;;;;;;;;25.30;69.50;;;;;;5076426;28;19956;-94
2022/06/22 07:22:10;;;;;;;;;;;25.50;69.40;;;;;;5076433;28;19942;-95
2022/06/22 07:25:01;;;;;;;;;;;25.60;69.50;;;;;;5076279;28;20028;-94
2022/06/22 07:27:36;;;;;;;;;;;25.50;69.40;;;;;;5071533;28;19996;-95
2022/06/22 07:30:10;;;;;;;;;;;25.50;68.70;;;;;;5076252;28;20148;-94
2022/06/22 07:32:36;;;;;;;;;;;25.70;69.40;;;;;;5076296;28;20302;-96
2022/06/22 07:35:04;;;;;;;;;;;25.80;70.00;;;;;;5076249;28;20043;-95
2022/06/22 07:37:36;;;;;;;;;;;25.80;67.70;;;;;;5075581;28;20049;-95
2022/06/22 07:40:11;;;;;;;;;;;26.00;66.00;;;;;;5076153;28;19949;-95
2022/06/22 07:42:36;;;;;;;;;;;26.30;65.80;;;;;;5076131;28;19951;-96
2022/06/22 07:45:02;;;;;;;;;;;26.50;65.50;;;;;;5076069;28;19945;-93
2022/06/22 07:47:33;;;;;;;;;;;26.50;64.80;;;;;;5075442;28;20501;-95
2022/06/22 07:49:58;;;;;;;;;;;26.60;66.90;;;;;;5075627;28;19970;-95
2022/06/22 07:52:26;;;;;;;;;;;26.60;66.00;;;;;;5075912;28;20052;-95
2022/06/22 07:55:01;;;;;;;;;;;26.70;65.60;;;;;;5075198;28;19949;-95
2022/06/22 07:57:42;;;;;;;;;;;26.60;66.10;;;;;;5075479;28;19982;-94
2022/06/22 08:00:14;;;;;;;;;;;26.60;65.90;;;;;;5075240;28;19954;-95
2022/06/22 08:02:53;;;;;;;;;;;26.70;65.80;;;;;;5075779;28;19940;-95
2022/06/22 08:05:21;;;;;;;;;;;26.70;65.50;;;;;;5075554;28;20451;-96
2022/06/22 08:07:53;;;;;;;;;;;26.80;66.40;;;;;;5075334;28;19967;-95
2022/06/22 08:10:24;;;;;;;;;;;27.00;66.20;;;;;;5075592;28;19961;-96
2022/06/22 08:13:05;;;;;;;;;;;26.90;65.70;;;;;;5075605;28;19983;-95
2022/06/22 08:15:34;;;;;;;;;;;26.90;64.50;;;;;;5075331;28;20437;-95
2022/06/22 08:18:00;;;;;;;;;;;26.70;65.00;;;;;;5057495;28;19947;-96
2022/06/22 08:20:27;;;;;;;;;;;26.70;66.50;;;;;;5057511;28;19957;-93
2022/06/22 08:22:54;;;;;;;;;;;26.60;66.50;;;;;;5075461;28;19937;-95
2022/06/22 08:25:21;;;;;;;;;;;26.50;66.40;;;;;;5075016;28;19962;-95
2022/06/22 08:27:47;;;;;;;;;;;26.50;67.10;;;;;;5075155;28;19942;-95
2022/06/22 08:30:14;;;;;;;;;;;26.50;67.90;;;;;;5075034;28;19981;-96
2022/06/22 08:32:44;;;;;;;;;;;26.40;67.80;;;;;;5075156;28;19945;-96
2022/06/22 08:35:27;;;;;;;;;;;26.40;67.60;;;;;;5075073;28;20051;-95
2022/06/22 08:38:08;;;;;;;;;;;26.50;66.70;;;;;;5056549;28;19949;-96
2022/06/22 08:40:34;;;;;;;;;;;26.40;66.80;;;;;;5065018;28;19962;-94
2022/06/22 08:43:11;;;;;;;;;;;26.50;66.40;;;;;;5054572;28;20396;-95
2022/06/22 08:45:44;;;;;;;;;;;26.50;66.30;;;;;;5054375;28;19943;-94
2022/06/22 08:48:22;;;;;;;;;;;26.50;66.50;;;;;;5054696;28;20330;-94
2022/06/22 08:51:06;;;;;;;;;;;26.40;66.60;;;;;;5054511;28;20033;-94
2022/06/22 08:53:41;;;;;;;;;;;26.30;66.90;;;;;;5054640;28;19943;-94
2022/06/22 08:56:16;;;;;;;;;;;26.30;67.00;;;;;;5053897;28;19954;-94
2022/06/22 08:58:41;;;;;;;;;;;26.30;67.60;;;;;;5054271;28;19969;-93
2022/06/22 09:01:26;;;;;;;;;;;26.20;68.70;;;;;;5054171;28;19952;-94
2022/06/22 09:04:10;;;;;;;;;;;26.20;70.60;;;;;;5054197;28;19945;-94
2022/06/22 09:07:07;;;;;;;;;;;26.00;72.10;;;;;;5054322;28;19959;-94
2022/06/22 09:09:33;;;;;;;;;;;25.80;73.30;;;;;;5011096;28;20014;-94
2022/06/22 09:12:17;;;;;;;;;;;25.70;74.50;;;;;;5043947;28;20003;-95
2022/06/22 09:15:06;;;;;;;;;;;25.50;74.40;;;;;;5054175;28;19949;-95
2022/06/22 09:17:34;;;;;;;;;;;25.50;75.30;;;;;;5025514;28;19948;-94
2022/06/22 09:20:28;;;;;;;;;;;25.30;75.10;;;;;;5054303;28;19946;-95
2022/06/22 09:22:58;;;;;;;;;;;25.30;75.30;;;;;;5054139;28;19946;-96
2022/06/22 09:25:30;;;;;;;;;;;25.50;74.40;;;;;;5054095;28;20329;-95
2022/06/22 09:28:01;;;;;;;;;;;25.50;73.40;;;;;;5054060;28;19952;-94
2022/06/22 09:30:45;;;;;;;;;;;25.60;72.80;;;;;;5053850;28;19959;-94
2022/06/22 09:33:19;;;;;;;;;;;25.70;72.40;;;;;;5053975;28;20038;-94
2022/06/22 09:35:45;;;;;;;;;;;25.80;72.20;;;;;;5053860;28;19947;-94
2022/06/22 09:38:29;;;;;;;;;;;26.00;73.00;;;;;;5053968;28;19952;-95
2022/06/22 09:41:00;;;;;;;;;;;26.20;73.30;;;;;;5053985;28;19944;-96
2022/06/22 09:43:46;;;;;;;;;;;26.40;71.40;;;;;;5053718;28;19942;-95
2022/06/22 09:46:20;;;;;;;;;;;26.70;71.90;;;;;;5054063;28;19945;-94
2022/06/22 09:49:01;;;;;;;;;;;26.90;70.80;;;;;;5053780;28;19963;-96
2022/06/22 09:51:45;;;;;;;;;;;27.20;69.10;;;;;;5053700;28;19942;-95
2022/06/22 09:57:03;;;;;;;;;;;27.70;66.50;;;;;;5054064;28;20309;-95
2022/06/22 09:59:47;;;;;;;;;;;28.00;65.00;;;;;;5094396;22;19980;-95
2022/06/22 10:02:18;;;;;;;;;;;28.20;65.10;;;;;;5093306;28;20786;-95
2022/06/22 10:04:43;;;;;;;;;;;28.10;65.60;;;;;;5093974;28;19938;-93
2022/06/22 10:07:15;;;;;;;;;;;28.30;63.20;;;;;;5094086;28;19944;-95
2022/06/22 10:09:47;;;;;;;;;;;28.30;62.90;;;;;;5093808;28;20061;-95
2022/06/22 10:12:19;;;;;;;;;;;28.40;63.60;;;;;;5093622;28;19979;-95
2022/06/22 10:14:50;;;;;;;;;;;28.40;62.80;;;;;;5093632;28;19944;-94
2022/06/22 10:17:23;;;;;;;;;;;28.70;63.10;;;;;;5093615;28;19942;-94
2022/06/22 10:19:54;;;;;;;;;;;28.60;61.70;;;;;;5093861;28;20409;-95
2022/06/22 10:22:39;;;;;;;;;;;28.60;61.80;;;;;;5093874;28;20045;-94
2022/06/22 10:25:23;;;;;;;;;;;28.60;62.50;;;;;;5093666;28;19955;-94
2022/06/22 10:27:52;;;;;;;;;;;28.40;61.90;;;;;;5093649;28;19939;-95
2022/06/22 10:30:20;;;;;;;;;;;28.20;63.60;;;;;;5093673;28;20012;-96
2022/06/22 10:32:45;;;;;;;;;;;28.20;63.70;;;;;;5093649;28;20415;-95
2022/06/22 10:35:23;;;;;;;;;;;28.20;63.60;;;;;;5093678;28;19937;-94
2022/06/22 10:37:49;;;;;;;;;;;28.20;62.80;;;;;;5093676;28;19989;-95
2022/06/22 10:45:56;;;;;;;;;;;28.10;62.50;;;;;;5093744;28;20085;-94
2022/06/22 10:48:22;;;;;;;;;;;27.70;63.80;;;;;;5093466;28;19939;-94
2022/06/22 10:51:00;;;;;;;;;;;27.50;63.00;;;;;;5093408;28;19941;-94
2022/06/22 10:53:34;;;;;;;;;;;27.40;64.10;;;;;;5075402;28;19945;-93
2022/06/22 10:56:20;;;;;;;;;;;27.20;63.20;;;;;;5093281;28;19953;-95
2022/06/22 10:58:57;;;;;;;;;;;27.00;62.60;;;;;;5092677;28;20044;-94
2022/06/22 11:01:32;;;;;;;;;;;27.00;63.90;;;;;;5093504;28;19948;-94
2022/06/22 11:04:22;;;;;;;;;;;26.90;63.50;;;;;;5097173;28;19952;-95
2022/06/22 11:07:12;;;;;;;;;;;26.80;64.10;;;;;;5097208;28;19941;-94
2022/06/22 11:09:37;;;;;;;;;;;26.90;64.50;;;;;;5097097;28;20051;-96
2022/06/22 11:12:18;;;;;;;;;;;27.10;64.00;;;;;;5096985;28;19980;-95
2022/06/22 11:15:02;;;;;;;;;;;27.30;64.10;;;;;;5097264;28;19941;-94
2022/06/22 11:17:30;;;;;;;;;;;27.80;62.50;;;;;;5096963;28;19989;-95
2022/06/22 11:19:56;;;;;;;;;;;28.20;59.40;;;;;;5096937;28;19937;-94
2022/06/22 11:22:28;;;;;;;;;;;28.70;60.40;;;;;;5096713;28;19982;-94
2022/06/22 11:25:12;;;;;;;;;;;29.20;58.90;;;;;;5096393;28;19943;-94
2022/06/22 11:30:48;;;;;;;;;;;30.20;56.30;;;;;;5096487;28;19987;-95
2022/06/22 11:33:19;;;;;;;;;;;30.60;53.60;;;;;;5096270;28;19937;-95
2022/06/22 11:36:03;;;;;;;;;;;30.80;51.30;;;;;;5096781;28;20380;-95
2022/06/22 11:38:37;;;;;;;;;;;30.90;49.60;;;;;;5096626;28;19940;-95
2022/06/22 11:41:22;;;;;;;;;;;30.70;50.90;;;;;;5096422;28;19953;-95
2022/06/22 11:43:55;;;;;;;;;;;30.50;51.60;;;;;;5096400;28;19942;-94
2022/06/22 11:46:37;;;;;;;;;;;30.50;51.50;;;;;;5096239;28;20032;-94
2022/06/22 11:49:21;;;;;;;;;;;30.40;52.60;;;;;;5096183;28;19970;-94
2022/06/22 11:51:53;;;;;;;;;;;30.40;53.60;;;;;;5096314;28;19942;-95
2022/06/22 11:54:47;;;;;;;;;;;30.40;51.70;;;;;;5095885;28;19941;-95
2022/06/22 11:57:36;;;;;;;;;;;30.30;52.00;;;;;;5078035;28;20480;-96
2022/06/22 12:00:10;;;;;;;;;;;30.60;50.00;;;;;;5095830;28;20084;-94
2022/06/22 12:02:55;;;;;;;;;;;30.90;49.60;;;;;;5096006;28;19943;-95
2022/06/22 12:05:36;;;;;;;;;;;31.10;48.10;;;;;;5095890;28;20396;-94
2022/06/22 12:08:20;;;;;;;;;;;31.60;46.90;;;;;;5095883;28;19949;-94
2022/06/22 12:10:55;;;;;;;;;;;32.00;46.20;;;;;;5095874;28;19971;-94
2022/06/22 12:13:27;;;;;;;;;;;32.10;46.10;;;;;;5095765;28;20406;-95
2022/06/22 12:16:12;;;;;;;;;;;31.90;46.80;;;;;;5095807;28;20263;-95
2022/06/22 12:18:56;;;;;;;;;;;31.60;48.70;;;;;;5098559;28;19946;-96
2022/06/22 12:21:33;;;;;;;;;;;30.90;48.70;;;;;;5077691;28;19941;-95
2022/06/22 12:24:08;;;;;;;;;;;30.40;49.30;;;;;;5095911;28;19940;-95
2022/06/22 12:26:39;;;;;;;;;;;30.00;52.80;;;;;;5094800;28;19982;-94
2022/06/22 12:29:08;;;;;;;;;;;29.60;52.10;;;;;;5093737;28;20006;-94
2022/06/22 12:31:39;;;;;;;;;;;29.70;52.80;;;;;;5075153;28;19997;-94
2022/06/22 12:34:10;;;;;;;;;;;29.70;52.80;;;;;;5075187;28;19939;-95
2022/06/22 12:36:50;;;;;;;;;;;29.60;52.80;;;;;;5074858;28;19943;-94
2022/06/22 12:39:18;;;;;;;;;;;29.50;51.80;;;;;;5074355;28;19994;-94
2022/06/22 12:41:44;;;;;;;;;;;29.50;51.70;;;;;;5075091;28;19947;-94
2022/06/22 12:44:12;;;;;;;;;;;29.60;51.90;;;;;;5075044;28;19932;-94
2022/06/22 12:46:44;;;;;;;;;;;29.70;51.60;;;;;;5056489;28;20545;-94
2022/06/22 12:49:22;;;;;;;;;;;29.80;51.40;;;;;;5074643;28;20026;-94
2022/06/22 12:52:01;;;;;;;;;;;30.20;50.80;;;;;;5074292;28;19996;-95
2022/06/22 12:54:29;;;;;;;;;;;30.50;53.10;;;;;;5092257;28;20031;-95
2022/06/22 12:56:55;;;;;;;;;;;30.40;51.20;;;;;;5060891;28;19999;-95
2022/06/22 12:59:30;;;;;;;;;;;30.70;51.00;;;;;;5058796;28;19980;-96
2022/06/22 13:01:56;;;;;;;;;;;31.40;47.90;;;;;;5094894;28;19941;-96
2022/06/22 13:04:28;;;;;;;;;;;32.00;47.40;;;;;;5094915;28;20440;-95
2022/06/22 13:07:00;;;;;;;;;;;32.20;49.60;;;;;;5076596;28;19946;-95
2022/06/22 13:09:26;;;;;;;;;;;32.30;48.30;;;;;;5093934;28;19943;-96
2022/06/22 13:11:53;;;;;;;;;;;32.20;47.90;;;;;;5094640;28;20024;-95
2022/06/22 13:14:31;;;;;;;;;;;32.20;48.80;;;;;;5094361;28;19943;-95
2022/06/22 13:17:05;;;;;;;;;;;32.40;49.30;;;;;;5094510;28;19992;-95
2022/06/22 13:19:49;;;;;;;;;;;32.50;48.20;;;;;;5094468;28;19986;-95
2022/06/22 13:22:35;;;;;;;;;;;32.90;47.20;;;;;;5094531;28;19946;-95
2022/06/22 13:25:03;;;;;;;;;;;33.80;45.40;;;;;;5105611;28;19942;-95
2022/06/22 13:27:41;;;;;;;;;;;34.40;44.10;;;;;;5114673;28;19932;-94
2022/06/22 13:30:07;;;;;;;;;;;34.70;43.00;;;;;;5109356;28;19962;-94
2022/06/22 13:32:32;;;;;;;;;;;34.40;42.00;;;;;;5093971;28;20399;-95
2022/06/22 13:35:04;;;;;;;;;;;34.10;41.00;;;;;;5076064;28;19941;-96
2022/06/22 13:37:53;;;;;;;;;;;33.20;42.30;;;;;;5102980;28;19947;-96
2022/06/22 13:40:29;;;;;;;;;;;32.50;45.00;;;;;;5114573;28;20378;-95
2022/06/22 13:43:06;;;;;;;;;;;32.10;47.00;;;;;;5114677;28;19937;-96
2022/06/22 13:45:32;;;;;;;;;;;32.00;45.40;;;;;;5114325;28;19936;-96
2022/06/22 13:48:14;;;;;;;;;;;32.40;45.60;;;;;;5096320;28;19948;-95
2022/06/22 13:51:02;;;;;;;;;;;32.70;44.00;;;;;;5114082;28;19956;-96
2022/06/22 13:53:43;;;;;;;;;;;32.70;45.30;;;;;;5114664;28;19981;-96
2022/06/22 13:56:09;;;;;;;;;;;32.70;46.30;;;;;;5114432;28;19950;-96
2022/06/22 13:58:45;;;;;;;;;;;32.70;46.30;;;;;;5114490;28;19972;-96
2022/06/22 14:01:27;;;;;;;;;;;32.90;45.00;;;;;;5096080;28;19980;-96
2022/06/22 14:04:12;;;;;;;;;;;33.40;44.50;;;;;;5114365;28;19940;-96
2022/06/22 14:06:37;;;;;;;;;;;34.00;43.00;;;;;;5114363;28;20030;-96
2022/06/22 14:09:03;;;;;;;;;;;34.50;42.10;;;;;;5114171;28;20067;-96
2022/06/22 14:11:38;;;;;;;;;;;34.60;41.60;;;;;;5114308;28;19977;-95
2022/06/22 14:14:12;;;;;;;;;;;33.90;42.40;;;;;;5095972;28;19946;-95
2022/06/22 14:16:51;;;;;;;;;;;33.50;42.00;;;;;;5114232;28;20402;-96
2022/06/22 14:19:17;;;;;;;;;;;33.10;43.80;;;;;;5114220;28;19936;-95
2022/06/22 14:21:42;;;;;;;;;;;32.80;46.30;;;;;;5114861;28;20412;-96
2022/06/22 14:24:10;;;;;;;;;;;32.50;46.60;;;;;;5114169;28;19933;-95
2022/06/22 14:26:36;;;;;;;;;;;32.00;47.30;;;;;;5095715;28;19970;-96
2022/06/22 14:29:08;;;;;;;;;;;31.90;48.60;;;;;;5114294;28;20422;-95
2022/06/22 14:31:42;;;;;;;;;;;31.90;47.10;;;;;;5114161;28;20036;-96
2022/06/22 14:34:34;;;;;;;;;;;31.80;47.60;;;;;;5114328;28;19943;-96
2022/06/22 14:37:05;;;;;;;;;;;31.70;47.00;;;;;;5112708;28;19990;-96
2022/06/22 14:39:43;;;;;;;;;;;31.70;48.80;;;;;;5118081;28;20019;-96
2022/06/22 14:42:12;;;;;;;;;;;31.50;47.50;;;;;;5117489;28;19935;-96
2022/06/22 14:45:03;;;;;;;;;;;31.60;47.30;;;;;;5117915;28;19940;-96
2022/06/22 14:47:35;;;;;;;;;;;31.50;47.50;;;;;;5095874;28;19950;-95
2022/06/22 14:50:24;;;;;;;;;;;31.40;48.50;;;;;;5117353;28;19959;-95
2022/06/22 14:52:50;;;;;;;;;;;31.30;48.00;;;;;;5117884;28;20400;-95
2022/06/22 14:55:18;;;;;;;;;;;31.00;48.50;;;;;;5117692;28;19954;-95
2022/06/22 14:57:51;;;;;;;;;;;31.20;49.40;;;;;;5117207;28;19947;-95
2022/06/22 15:00:17;;;;;;;;;;;31.20;50.30;;;;;;5117687;28;19944;-95
2022/06/22 15:02:42;;;;;;;;;;;31.20;48.80;;;;;;5117424;28;19953;-96
2022/06/22 15:05:17;;;;;;;;;;;31.10;49.30;;;;;;5099267;28;19944;-96
2022/06/22 15:07:49;;;;;;;;;;;31.10;48.80;;;;;;5097398;28;19942;-95
2022/06/22 15:10:26;;;;;;;;;;;31.10;48.80;;;;;;5097214;28;19969;-96